sensor_id;sensor_type;location;lat;lon;timestamp;temperature;humidity
3308;DHT22;1666;48.898;9.182;2023-02-20T00:02:11;8.60;1.70
3308;DHT22;1666;48.898;9.182;2023-02-20T00:04:41;8.50;1.50
3308;DHT22;1666;48.898;9.182;2023-02-20T00:07:11;8.50;2.00
3308;DHT22;1666;48.898;9.182;2023-02-20T00:09:41;8.50;2.10
3308;DHT22;1666;48.898;9.182;2023-02-20T00:12:11;8.40;2.40
3308;DHT22;1666;48.898;9.182;2023-02-20T00:14:41;8.40;2.60
3308;DHT22;1666;48.898;9.182;2023-02-20T00:17:13;8.30;2.80
3308;DHT22;1666;48.898;9.182;2023-02-20T00:19:43;8.30;3.00
3308;DHT22;1666;48.898;9.182;2023-02-20T00:22:13;8.20;3.60
3308;DHT22;1666;48.898;9.182;2023-02-20T00:24:43;8.20;3.60
3308;DHT22;1666;48.898;9.182;2023-02-20T00:27:13;8.10;4.40
3308;DHT22;1666;48.898;9.182;2023-02-20T00:29:44;8.10;4.30
3308;DHT22;1666;48.898;9.182;2023-02-20T00:32:16;8.10;4.50
3308;DHT22;1666;48.898;9.182;2023-02-20T00:34:46;8.10;4.40
3308;DHT22;1666;48.898;9.182;2023-02-20T00:37:16;8.00;4.50
3308;DHT22;1666;48.898;9.182;2023-02-20T00:39:46;8.00;5.00
3308;DHT22;1666;48.898;9.182;2023-02-20T00:42:15;8.10;4.70
3308;DHT22;1666;48.898;9.182;2023-02-20T00:44:45;8.10;4.40
3308;DHT22;1666;48.898;9.182;2023-02-20T00:47:18;8.10;4.30
3308;DHT22;1666;48.898;9.182;2023-02-20T00:49:47;8.10;4.00
3308;DHT22;1666;48.898;9.182;2023-02-20T00:52:17;8.10;4.10
3308;DHT22;1666;48.898;9.182;2023-02-20T00:54:47;8.10;3.70
3308;DHT22;1666;48.898;9.182;2023-02-20T00:57:17;8.00;3.80
3308;DHT22;1666;48.898;9.182;2023-02-20T00:59:47;8.00;3.60
3308;DHT22;1666;48.898;9.182;2023-02-20T01:02:20;8.00;4.00
3308;DHT22;1666;48.898;9.182;2023-02-20T01:04:50;7.90;4.20
3308;DHT22;1666;48.898;9.182;2023-02-20T01:07:19;7.80;4.90
3308;DHT22;1666;48.898;9.182;2023-02-20T01:09:49;7.80;5.20
3308;DHT22;1666;48.898;9.182;2023-02-20T01:12:19;7.80;5.50
3308;DHT22;1666;48.898;9.182;2023-02-20T01:14:49;7.70;5.70
3308;DHT22;1666;48.898;9.182;2023-02-20T01:17:21;7.60;6.20
3308;DHT22;1666;48.898;9.182;2023-02-20T01:19:51;7.50;6.90
3308;DHT22;1666;48.898;9.182;2023-02-20T01:22:21;7.50;6.90
3308;DHT22;1666;48.898;9.182;2023-02-20T01:24:51;7.40;7.80
3308;DHT22;1666;48.898;9.182;2023-02-20T01:27:21;7.40;7.90
3308;DHT22;1666;48.898;9.182;2023-02-20T01:29:51;7.30;8.20
3308;DHT22;1666;48.898;9.182;2023-02-20T01:32:23;7.20;9.10
3308;DHT22;1666;48.898;9.182;2023-02-20T01:34:53;7.20;9.40
3308;DHT22;1666;48.898;9.182;2023-02-20T01:37:23;7.20;9.00
3308;DHT22;1666;48.898;9.182;2023-02-20T01:39:53;7.20;8.80
3308;DHT22;1666;48.898;9.182;2023-02-20T01:42:24;7.20;8.30
3308;DHT22;1666;48.898;9.182;2023-02-20T01:44:54;7.10;8.00
3308;DHT22;1666;48.898;9.182;2023-02-20T01:47:27;7.10;8.20
3308;DHT22;1666;48.898;9.182;2023-02-20T01:49:59;7.00;8.70
3308;DHT22;1666;48.898;9.182;2023-02-20T01:52:35;7.00;8.60
3308;DHT22;1666;48.898;9.182;2023-02-20T01:55:07;6.90;8.50
3308;DHT22;1666;48.898;9.182;2023-02-20T01:57:41;6.90;8.60
3308;DHT22;1666;48.898;9.182;2023-02-20T02:00:15;6.90;8.60
3308;DHT22;1666;48.898;9.182;2023-02-20T02:02:50;6.90;8.40
3308;DHT22;1666;48.898;9.182;2023-02-20T02:05:21;6.90;8.80
3308;DHT22;1666;48.898;9.182;2023-02-20T02:07:52;6.90;8.60
3308;DHT22;1666;48.898;9.182;2023-02-20T02:10:24;6.90;8.20
3308;DHT22;1666;48.898;9.182;2023-02-20T02:12:55;6.90;8.40
3308;DHT22;1666;48.898;9.182;2023-02-20T02:15:25;6.80;8.50
3308;DHT22;1666;48.898;9.182;2023-02-20T02:18:09;6.80;8.50
3308;DHT22;1666;48.898;9.182;2023-02-20T02:21:10;6.70;9.00
3308;DHT22;1666;48.898;9.182;2023-02-20T02:27:14;6.70;9.40
3308;DHT22;1666;48.898;9.182;2023-02-20T02:30:14;6.60;10.50
3308;DHT22;1666;48.898;9.182;2023-02-20T02:36:10;6.60;10.80
3308;DHT22;1666;48.898;9.182;2023-02-20T02:38:49;6.50;11.00
3308;DHT22;1666;48.898;9.182;2023-02-20T02:41:25;6.50;11.30
3308;DHT22;1666;48.898;9.182;2023-02-20T02:44:00;6.50;11.70
3308;DHT22;1666;48.898;9.182;2023-02-20T02:46:39;6.50;11.90
3308;DHT22;1666;48.898;9.182;2023-02-20T02:49:16;6.50;12.10
3308;DHT22;1666;48.898;9.182;2023-02-20T02:51:52;6.50;12.10
3308;DHT22;1666;48.898;9.182;2023-02-20T02:54:24;6.50;12.60
3308;DHT22;1666;48.898;9.182;2023-02-20T02:57:17;6.50;12.60
3308;DHT22;1666;48.898;9.182;2023-02-20T02:59:50;6.50;12.90
3308;DHT22;1666;48.898;9.182;2023-02-20T03:02:22;6.50;12.80
3308;DHT22;1666;48.898;9.182;2023-02-20T03:04:53;6.50;12.30
3308;DHT22;1666;48.898;9.182;2023-02-20T03:07:27;6.50;12.80
3308;DHT22;1666;48.898;9.182;2023-02-20T03:10:02;6.60;12.50
3308;DHT22;1666;48.898;9.182;2023-02-20T03:12:36;6.50;12.80
3308;DHT22;1666;48.898;9.182;2023-02-20T03:15:09;6.50;12.60
3308;DHT22;1666;48.898;9.182;2023-02-20T03:17:59;6.60;11.90
3308;DHT22;1666;48.898;9.182;2023-02-20T03:20:31;6.60;11.30
3308;DHT22;1666;48.898;9.182;2023-02-20T03:23:05;6.50;11.70
3308;DHT22;1666;48.898;9.182;2023-02-20T03:25:39;6.50;12.10
3308;DHT22;1666;48.898;9.182;2023-02-20T03:28:12;6.50;12.20
3308;DHT22;1666;48.898;9.182;2023-02-20T03:30:46;6.40;11.90
3308;DHT22;1666;48.898;9.182;2023-02-20T03:33:23;6.40;12.10
3308;DHT22;1666;48.898;9.182;2023-02-20T03:36:09;6.40;12.30
3308;DHT22;1666;48.898;9.182;2023-02-20T03:38:59;6.50;11.50
3308;DHT22;1666;48.898;9.182;2023-02-20T03:41:45;6.60;11.20
3308;DHT22;1666;48.898;9.182;2023-02-20T03:44:29;6.60;10.90
3308;DHT22;1666;48.898;9.182;2023-02-20T03:47:01;6.60;10.60
3308;DHT22;1666;48.898;9.182;2023-02-20T03:49:34;6.70;10.40
3308;DHT22;1666;48.898;9.182;2023-02-20T03:52:06;6.80;10.10
3308;DHT22;1666;48.898;9.182;2023-02-20T03:54:39;6.80;9.20
3308;DHT22;1666;48.898;9.182;2023-02-20T03:57:11;6.90;8.30
3308;DHT22;1666;48.898;9.182;2023-02-20T03:59:45;6.90;8.30
3308;DHT22;1666;48.898;9.182;2023-02-20T04:02:20;7.00;7.90
3308;DHT22;1666;48.898;9.182;2023-02-20T04:04:52;7.10;6.80
3308;DHT22;1666;48.898;9.182;2023-02-20T04:07:24;7.10;6.70
3308;DHT22;1666;48.898;9.182;2023-02-20T04:10:02;7.20;5.90
3308;DHT22;1666;48.898;9.182;2023-02-20T04:12:36;7.20;6.10
3308;DHT22;1666;48.898;9.182;2023-02-20T04:15:08;7.20;6.00
3308;DHT22;1666;48.898;9.182;2023-02-20T04:17:41;7.30;5.20
3308;DHT22;1666;48.898;9.182;2023-02-20T04:20:13;7.20;5.70
3308;DHT22;1666;48.898;9.182;2023-02-20T04:22:45;7.10;6.00
3308;DHT22;1666;48.898;9.182;2023-02-20T04:25:24;7.00;6.60
3308;DHT22;1666;48.898;9.182;2023-02-20T04:28:01;6.80;7.90
3308;DHT22;1666;48.898;9.182;2023-02-20T04:30:31;6.80;8.30
3308;DHT22;1666;48.898;9.182;2023-02-20T04:33:01;6.60;9.00
3308;DHT22;1666;48.898;9.182;2023-02-20T04:35:31;6.50;10.20
3308;DHT22;1666;48.898;9.182;2023-02-20T04:38:01;6.40;10.60
3308;DHT22;1666;48.898;9.182;2023-02-20T04:40:33;6.40;11.40
3308;DHT22;1666;48.898;9.182;2023-02-20T04:43:03;6.30;12.00
3308;DHT22;1666;48.898;9.182;2023-02-20T04:45:33;6.30;12.40
3308;DHT22;1666;48.898;9.182;2023-02-20T04:48:03;6.20;12.40
3308;DHT22;1666;48.898;9.182;2023-02-20T04:50:34;6.20;13.10
3308;DHT22;1666;48.898;9.182;2023-02-20T04:53:03;6.10;13.30
3308;DHT22;1666;48.898;9.182;2023-02-20T04:55:36;6.10;13.30
3308;DHT22;1666;48.898;9.182;2023-02-20T04:58:06;6.00;13.80
3308;DHT22;1666;48.898;9.182;2023-02-20T05:00:35;6.00;13.60
3308;DHT22;1666;48.898;9.182;2023-02-20T05:03:05;6.00;14.70
3308;DHT22;1666;48.898;9.182;2023-02-20T05:05:35;6.00;14.90
3308;DHT22;1666;48.898;9.182;2023-02-20T05:08:06;5.90;15.00
3308;DHT22;1666;48.898;9.182;2023-02-20T05:10:39;5.90;15.40
3308;DHT22;1666;48.898;9.182;2023-02-20T05:13:08;5.90;16.00
3308;DHT22;1666;48.898;9.182;2023-02-20T05:15:38;6.00;15.90
3308;DHT22;1666;48.898;9.182;2023-02-20T05:18:08;6.00;15.30
3308;DHT22;1666;48.898;9.182;2023-02-20T05:20:38;6.00;15.20
3308;DHT22;1666;48.898;9.182;2023-02-20T05:23:20;6.00;15.70
3308;DHT22;1666;48.898;9.182;2023-02-20T05:25:52;5.90;15.60
3308;DHT22;1666;48.898;9.182;2023-02-20T05:28:22;5.90;15.60
3308;DHT22;1666;48.898;9.182;2023-02-20T05:30:52;5.90;15.10
3308;DHT22;1666;48.898;9.182;2023-02-20T05:33:22;5.80;15.30
3308;DHT22;1666;48.898;9.182;2023-02-20T05:35:52;5.80;15.80
3308;DHT22;1666;48.898;9.182;2023-02-20T05:38:21;5.80;16.00
3308;DHT22;1666;48.898;9.182;2023-02-20T05:40:54;5.80;16.10
3308;DHT22;1666;48.898;9.182;2023-02-20T05:43:24;5.70;15.40
3308;DHT22;1666;48.898;9.182;2023-02-20T05:45:54;5.70;15.60
3308;DHT22;1666;48.898;9.182;2023-02-20T05:48:24;5.70;15.90
3308;DHT22;1666;48.898;9.182;2023-02-20T05:50:53;5.70;16.10
3308;DHT22;1666;48.898;9.182;2023-02-20T05:53:25;5.60;16.10
3308;DHT22;1666;48.898;9.182;2023-02-20T05:55:58;5.70;16.30
3308;DHT22;1666;48.898;9.182;2023-02-20T05:58:28;5.70;16.00
3308;DHT22;1666;48.898;9.182;2023-02-20T06:00:57;5.70;15.70
3308;DHT22;1666;48.898;9.182;2023-02-20T06:03:27;5.70;15.80
3308;DHT22;1666;48.898;9.182;2023-02-20T06:05:57;5.70;15.90
3308;DHT22;1666;48.898;9.182;2023-02-20T06:08:27;5.70;15.40
3308;DHT22;1666;48.898;9.182;2023-02-20T06:10:59;5.60;15.20
3308;DHT22;1666;48.898;9.182;2023-02-20T06:13:29;5.60;15.80
3308;DHT22;1666;48.898;9.182;2023-02-20T06:15:59;5.50;15.60
3308;DHT22;1666;48.898;9.182;2023-02-20T06:18:28;5.50;15.60
3308;DHT22;1666;48.898;9.182;2023-02-20T06:20:58;5.50;16.00
3308;DHT22;1666;48.898;9.182;2023-02-20T06:23:28;5.50;16.50
3308;DHT22;1666;48.898;9.182;2023-02-20T06:26:00;5.50;16.50
3308;DHT22;1666;48.898;9.182;2023-02-20T06:28:30;5.50;16.60
3308;DHT22;1666;48.898;9.182;2023-02-20T06:31:00;5.50;16.90
3308;DHT22;1666;48.898;9.182;2023-02-20T06:33:30;5.50;16.50
3308;DHT22;1666;48.898;9.182;2023-02-20T06:36:00;5.50;16.80
3308;DHT22;1666;48.898;9.182;2023-02-20T06:38:30;5.50;16.90
3308;DHT22;1666;48.898;9.182;2023-02-20T06:41:02;5.50;17.10
3308;DHT22;1666;48.898;9.182;2023-02-20T06:43:32;5.50;17.00
3308;DHT22;1666;48.898;9.182;2023-02-20T06:46:02;5.50;17.00
3308;DHT22;1666;48.898;9.182;2023-02-20T06:48:32;5.50;17.30
3308;DHT22;1666;48.898;9.182;2023-02-20T06:51:02;5.60;17.70
3308;DHT22;1666;48.898;9.182;2023-02-20T06:53:31;5.60;17.50
3308;DHT22;1666;48.898;9.182;2023-02-20T06:56:09;5.60;17.30
3308;DHT22;1666;48.898;9.182;2023-02-20T06:58:40;5.70;17.20
3308;DHT22;1666;48.898;9.182;2023-02-20T07:01:10;5.70;16.80
3308;DHT22;1666;48.898;9.182;2023-02-20T07:03:39;5.80;16.50
3308;DHT22;1666;48.898;9.182;2023-02-20T07:06:10;5.80;16.30
3308;DHT22;1666;48.898;9.182;2023-02-20T07:08:40;5.90;15.70
3308;DHT22;1666;48.898;9.182;2023-02-20T07:11:13;6.00;15.10
3308;DHT22;1666;48.898;9.182;2023-02-20T07:13:44;6.10;14.40
3308;DHT22;1666;48.898;9.182;2023-02-20T07:16:14;6.20;13.30
3308;DHT22;1666;48.898;9.182;2023-02-20T07:18:44;6.30;13.10
3308;DHT22;1666;48.898;9.182;2023-02-20T07:21:14;6.30;12.60
3308;DHT22;1666;48.898;9.182;2023-02-20T07:23:44;6.40;12.10
3308;DHT22;1666;48.898;9.182;2023-02-20T07:26:22;6.40;11.90
3308;DHT22;1666;48.898;9.182;2023-02-20T07:28:53;6.40;11.50
3308;DHT22;1666;48.898;9.182;2023-02-20T07:31:24;6.50;11.30
3308;DHT22;1666;48.898;9.182;2023-02-20T07:33:55;6.70;10.20
3308;DHT22;1666;48.898;9.182;2023-02-20T07:36:25;6.80;9.20
3308;DHT22;1666;48.898;9.182;2023-02-20T07:38:55;6.80;8.30
3308;DHT22;1666;48.898;9.182;2023-02-20T07:41:29;6.90;8.10
3308;DHT22;1666;48.898;9.182;2023-02-20T07:44:00;7.00;7.20
3308;DHT22;1666;48.898;9.182;2023-02-20T07:46:31;7.10;6.60
3308;DHT22;1666;48.898;9.182;2023-02-20T07:49:01;7.20;6.10
3308;DHT22;1666;48.898;9.182;2023-02-20T07:51:31;7.20;5.00
3308;DHT22;1666;48.898;9.182;2023-02-20T07:54:02;7.30;5.10
3308;DHT22;1666;48.898;9.182;2023-02-20T07:56:35;7.40;3.70
3308;DHT22;1666;48.898;9.182;2023-02-20T07:59:04;7.50;3.00
3308;DHT22;1666;48.898;9.182;2023-02-20T08:01:36;7.50;1.80
3308;DHT22;1666;48.898;9.182;2023-02-20T08:04:06;7.70;1.20
3308;DHT22;1666;48.898;9.182;2023-02-20T08:06:36;7.80;1.00
3308;DHT22;1666;48.898;9.182;2023-02-20T08:09:06;7.90;1.00
3308;DHT22;1666;48.898;9.182;2023-02-20T08:11:39;8.00;1.00
3308;DHT22;1666;48.898;9.182;2023-02-20T08:14:09;8.00;1.00
3308;DHT22;1666;48.898;9.182;2023-02-20T08:16:38;8.10;1.00
3308;DHT22;1666;48.898;9.182;2023-02-20T08:19:08;8.20;1.00
3308;DHT22;1666;48.898;9.182;2023-02-20T08:21:38;8.20;1.00
3308;DHT22;1666;48.898;9.182;2023-02-20T08:24:08;8.30;1.00
3308;DHT22;1666;48.898;9.182;2023-02-20T08:26:44;8.30;1.00
3308;DHT22;1666;48.898;9.182;2023-02-20T08:29:15;8.40;1.00
3308;DHT22;1666;48.898;9.182;2023-02-20T08:31:45;8.50;1.00
3308;DHT22;1666;48.898;9.182;2023-02-20T08:34:15;8.60;1.00
3308;DHT22;1666;48.898;9.182;2023-02-20T08:36:45;8.60;1.00
3308;DHT22;1666;48.898;9.182;2023-02-20T08:39:15;8.70;1.00
3308;DHT22;1666;48.898;9.182;2023-02-20T08:41:47;8.80;1.00
3308;DHT22;1666;48.898;9.182;2023-02-20T08:44:17;8.90;1.00
3308;DHT22;1666;48.898;9.182;2023-02-20T08:46:47;8.90;1.00
3308;DHT22;1666;48.898;9.182;2023-02-20T08:49:18;9.00;1.00
3308;DHT22;1666;48.898;9.182;2023-02-20T08:51:53;9.20;1.00
3308;DHT22;1666;48.898;9.182;2023-02-20T08:54:24;9.20;1.00
3308;DHT22;1666;48.898;9.182;2023-02-20T08:56:56;9.30;1.00
3308;DHT22;1666;48.898;9.182;2023-02-20T08:59:30;9.30;1.00
3308;DHT22;1666;48.898;9.182;2023-02-20T09:02:00;9.40;1.00
3308;DHT22;1666;48.898;9.182;2023-02-20T09:04:30;9.50;1.00
3308;DHT22;1666;48.898;9.182;2023-02-20T09:07:00;9.70;1.00
3308;DHT22;1666;48.898;9.182;2023-02-20T09:09:30;9.90;1.00
3308;DHT22;1666;48.898;9.182;2023-02-20T09:12:03;10.00;1.00
3308;DHT22;1666;48.898;9.182;2023-02-20T09:14:33;10.00;1.00
3308;DHT22;1666;48.898;9.182;2023-02-20T09:17:03;10.20;1.00
3308;DHT22;1666;48.898;9.182;2023-02-20T09:19:34;10.20;1.00
3308;DHT22;1666;48.898;9.182;2023-02-20T09:22:04;10.40;1.00
3308;DHT22;1666;48.898;9.182;2023-02-20T09:24:34;10.70;1.00
3308;DHT22;1666;48.898;9.182;2023-02-20T09:27:06;10.90;1.00
3308;DHT22;1666;48.898;9.182;2023-02-20T09:29:36;11.10;1.00
3308;DHT22;1666;48.898;9.182;2023-02-20T09:32:09;11.40;1.00
3308;DHT22;1666;48.898;9.182;2023-02-20T09:34:39;11.40;1.00
3308;DHT22;1666;48.898;9.182;2023-02-20T09:37:10;11.10;1.00
3308;DHT22;1666;48.898;9.182;2023-02-20T09:39:40;11.20;1.00
3308;DHT22;1666;48.898;9.182;2023-02-20T09:42:22;11.30;1.00
3308;DHT22;1666;48.898;9.182;2023-02-20T09:44:57;11.20;1.00
3308;DHT22;1666;48.898;9.182;2023-02-20T09:47:40;10.90;1.00
3308;DHT22;1666;48.898;9.182;2023-02-20T09:50:14;11.10;1.00
3308;DHT22;1666;48.898;9.182;2023-02-20T09:52:50;10.90;1.00
3308;DHT22;1666;48.898;9.182;2023-02-20T09:55:35;11.10;1.00
3308;DHT22;1666;48.898;9.182;2023-02-20T09:58:19;10.90;1.00
3308;DHT22;1666;48.898;9.182;2023-02-20T10:00:49;11.20;1.00
3308;DHT22;1666;48.898;9.182;2023-02-20T10:03:24;11.20;1.00
3308;DHT22;1666;48.898;9.182;2023-02-20T10:05:56;11.40;1.00
3308;DHT22;1666;48.898;9.182;2023-02-20T10:08:26;11.10;1.00
3308;DHT22;1666;48.898;9.182;2023-02-20T10:11:00;11.00;1.00
3308;DHT22;1666;48.898;9.182;2023-02-20T10:13:44;11.20;1.00
3308;DHT22;1666;48.898;9.182;2023-02-20T10:16:29;11.50;1.00
3308;DHT22;1666;48.898;9.182;2023-02-20T10:19:09;11.40;1.00
3308;DHT22;1666;48.898;9.182;2023-02-20T10:21:49;11.40;1.00
3308;DHT22;1666;48.898;9.182;2023-02-20T10:24:30;11.50;1.00
3308;DHT22;1666;48.898;9.182;2023-02-20T10:27:14;11.40;1.00
3308;DHT22;1666;48.898;9.182;2023-02-20T10:29:50;11.50;1.00
3308;DHT22;1666;48.898;9.182;2023-02-20T10:32:27;11.60;1.00
3308;DHT22;1666;48.898;9.182;2023-02-20T10:35:03;11.70;1.00
3308;DHT22;1666;48.898;9.182;2023-02-20T10:37:37;11.90;1.00
3308;DHT22;1666;48.898;9.182;2023-02-20T10:40:19;11.70;1.00
3308;DHT22;1666;48.898;9.182;2023-02-20T10:42:54;11.90;1.00
3308;DHT22;1666;48.898;9.182;2023-02-20T10:45:40;11.80;1.00
3308;DHT22;1666;48.898;9.182;2023-02-20T10:48:12;11.80;1.00
3308;DHT22;1666;48.898;9.182;2023-02-20T10:50:48;11.80;1.00
3308;DHT22;1666;48.898;9.182;2023-02-20T10:53:25;11.90;1.00
3308;DHT22;1666;48.898;9.182;2023-02-20T10:56:00;12.10;1.00
3308;DHT22;1666;48.898;9.182;2023-02-20T10:58:37;12.10;1.00
3308;DHT22;1666;48.898;9.182;2023-02-20T11:01:15;12.00;1.00
3308;DHT22;1666;48.898;9.182;2023-02-20T11:03:51;12.00;1.00
3308;DHT22;1666;48.898;9.182;2023-02-20T11:06:26;12.20;1.00
3308;DHT22;1666;48.898;9.182;2023-02-20T11:08:58;12.20;1.00
3308;DHT22;1666;48.898;9.182;2023-02-20T11:11:31;12.20;1.00
3308;DHT22;1666;48.898;9.182;2023-02-20T11:14:10;12.20;1.00
3308;DHT22;1666;48.898;9.182;2023-02-20T11:16:46;12.20;1.00
3308;DHT22;1666;48.898;9.182;2023-02-20T11:19:22;12.30;1.00
3308;DHT22;1666;48.898;9.182;2023-02-20T11:21:53;12.50;1.00
3308;DHT22;1666;48.898;9.182;2023-02-20T11:24:29;12.40;1.00
3308;DHT22;1666;48.898;9.182;2023-02-20T11:27:02;12.60;1.00
3308;DHT22;1666;48.898;9.182;2023-02-20T11:29:37;12.20;1.00
3308;DHT22;1666;48.898;9.182;2023-02-20T11:32:36;12.10;1.00
3308;DHT22;1666;48.898;9.182;2023-02-20T11:35:25;12.30;1.00
3308;DHT22;1666;48.898;9.182;2023-02-20T11:38:30;12.40;1.00
3308;DHT22;1666;48.898;9.182;2023-02-20T11:41:15;12.70;1.00
3308;DHT22;1666;48.898;9.182;2023-02-20T11:47:09;12.80;1.00
3308;DHT22;1666;48.898;9.182;2023-02-20T11:49:42;12.90;1.00
3308;DHT22;1666;48.898;9.182;2023-02-20T11:52:16;13.10;1.00
3308;DHT22;1666;48.898;9.182;2023-02-20T11:54:46;13.00;1.00
3308;DHT22;1666;48.898;9.182;2023-02-20T11:57:23;13.10;1.00
3308;DHT22;1666;48.898;9.182;2023-02-20T12:00:09;13.20;1.00
3308;DHT22;1666;48.898;9.182;2023-02-20T12:02:48;13.30;1.00
3308;DHT22;1666;48.898;9.182;2023-02-20T12:05:36;13.30;1.00
3308;DHT22;1666;48.898;9.182;2023-02-20T12:08:27;13.30;1.00
3308;DHT22;1666;48.898;9.182;2023-02-20T12:11:00;13.10;1.00
3308;DHT22;1666;48.898;9.182;2023-02-20T12:13:36;13.10;1.00
3308;DHT22;1666;48.898;9.182;2023-02-20T12:19:04;13.40;1.00
3308;DHT22;1666;48.898;9.182;2023-02-20T12:21:48;13.30;1.00
3308;DHT22;1666;48.898;9.182;2023-02-20T12:24:34;13.20;1.00
3308;DHT22;1666;48.898;9.182;2023-02-20T12:27:23;13.40;1.00
3308;DHT22;1666;48.898;9.182;2023-02-20T12:30:02;13.30;1.00
3308;DHT22;1666;48.898;9.182;2023-02-20T12:32:46;13.40;1.00
3308;DHT22;1666;48.898;9.182;2023-02-20T12:35:27;13.20;1.00
3308;DHT22;1666;48.898;9.182;2023-02-20T12:41:08;13.60;1.00
3308;DHT22;1666;48.898;9.182;2023-02-20T12:43:47;13.50;1.00
3308;DHT22;1666;48.898;9.182;2023-02-20T12:46:36;13.60;1.00
3308;DHT22;1666;48.898;9.182;2023-02-20T12:52:17;13.90;1.00
3308;DHT22;1666;48.898;9.182;2023-02-20T12:55:02;13.70;1.00
3308;DHT22;1666;48.898;9.182;2023-02-20T12:57:41;13.80;1.00
3308;DHT22;1666;48.898;9.182;2023-02-20T13:00:28;14.00;1.00
3308;DHT22;1666;48.898;9.182;2023-02-20T13:03:06;14.00;1.00
3308;DHT22;1666;48.898;9.182;2023-02-20T13:05:41;13.90;1.00
3308;DHT22;1666;48.898;9.182;2023-02-20T13:08:13;13.90;1.00
3308;DHT22;1666;48.898;9.182;2023-02-20T13:10:52;14.00;1.00
3308;DHT22;1666;48.898;9.182;2023-02-20T13:13:27;14.00;1.00
3308;DHT22;1666;48.898;9.182;2023-02-20T13:16:03;13.90;1.00
3308;DHT22;1666;48.898;9.182;2023-02-20T13:18:40;13.80;1.00
3308;DHT22;1666;48.898;9.182;2023-02-20T13:21:14;14.10;1.00
3308;DHT22;1666;48.898;9.182;2023-02-20T13:23:44;14.10;1.00
3308;DHT22;1666;48.898;9.182;2023-02-20T13:26:48;14.20;1.00
3308;DHT22;1666;48.898;9.182;2023-02-20T13:29:20;14.10;1.00
3308;DHT22;1666;48.898;9.182;2023-02-20T13:31:54;14.00;1.00
3308;DHT22;1666;48.898;9.182;2023-02-20T13:34:32;14.20;1.00
3308;DHT22;1666;48.898;9.182;2023-02-20T13:37:05;14.30;1.00
3308;DHT22;1666;48.898;9.182;2023-02-20T13:39:54;14.20;1.00
3308;DHT22;1666;48.898;9.182;2023-02-20T13:42:35;14.10;1.00
3308;DHT22;1666;48.898;9.182;2023-02-20T13:45:36;14.20;1.00
3308;DHT22;1666;48.898;9.182;2023-02-20T13:48:17;14.30;1.00
3308;DHT22;1666;48.898;9.182;2023-02-20T13:50:47;14.00;1.00
3308;DHT22;1666;48.898;9.182;2023-02-20T13:53:17;14.00;1.00
3308;DHT22;1666;48.898;9.182;2023-02-20T13:55:47;14.10;1.00
3308;DHT22;1666;48.898;9.182;2023-02-20T13:58:19;14.30;1.00
3308;DHT22;1666;48.898;9.182;2023-02-20T14:00:53;14.40;1.00
3308;DHT22;1666;48.898;9.182;2023-02-20T14:03:26;14.30;1.00
3308;DHT22;1666;48.898;9.182;2023-02-20T14:06:08;14.30;1.00
3308;DHT22;1666;48.898;9.182;2023-02-20T14:08:40;14.20;1.00
3308;DHT22;1666;48.898;9.182;2023-02-20T14:11:12;14.10;1.00
3308;DHT22;1666;48.898;9.182;2023-02-20T14:13:52;14.30;1.00
3308;DHT22;1666;48.898;9.182;2023-02-20T14:16:27;14.40;1.00
3308;DHT22;1666;48.898;9.182;2023-02-20T14:18:59;14.40;1.00
3308;DHT22;1666;48.898;9.182;2023-02-20T14:21:29;14.40;1.00
3308;DHT22;1666;48.898;9.182;2023-02-20T14:24:12;14.30;1.00
3308;DHT22;1666;48.898;9.182;2023-02-20T14:26:45;14.20;1.00
3308;DHT22;1666;48.898;9.182;2023-02-20T14:29:24;14.30;1.00
3308;DHT22;1666;48.898;9.182;2023-02-20T14:31:56;14.40;1.00
3308;DHT22;1666;48.898;9.182;2023-02-20T14:34:34;14.30;1.00
3308;DHT22;1666;48.898;9.182;2023-02-20T14:37:09;14.10;1.00
3308;DHT22;1666;48.898;9.182;2023-02-20T14:39:48;14.20;1.00
3308;DHT22;1666;48.898;9.182;2023-02-20T14:42:21;14.20;1.00
3308;DHT22;1666;48.898;9.182;2023-02-20T14:44:58;14.00;1.00
3308;DHT22;1666;48.898;9.182;2023-02-20T14:47:30;14.10;1.00
3308;DHT22;1666;48.898;9.182;2023-02-20T14:50:13;14.00;1.00
3308;DHT22;1666;48.898;9.182;2023-02-20T14:52:44;13.90;1.00
3308;DHT22;1666;48.898;9.182;2023-02-20T14:55:16;14.00;1.00
3308;DHT22;1666;48.898;9.182;2023-02-20T14:57:48;14.00;1.00
3308;DHT22;1666;48.898;9.182;2023-02-20T15:00:33;13.90;1.00
3308;DHT22;1666;48.898;9.182;2023-02-20T15:03:07;13.90;1.00
3308;DHT22;1666;48.898;9.182;2023-02-20T15:05:59;13.90;1.00
3308;DHT22;1666;48.898;9.182;2023-02-20T15:08:30;13.90;1.00
3308;DHT22;1666;48.898;9.182;2023-02-20T15:11:06;13.90;1.00
3308;DHT22;1666;48.898;9.182;2023-02-20T15:13:40;13.80;1.00
3308;DHT22;1666;48.898;9.182;2023-02-20T15:16:20;13.80;1.00
3308;DHT22;1666;48.898;9.182;2023-02-20T15:18:51;13.80;1.00
3308;DHT22;1666;48.898;9.182;2023-02-20T15:21:35;13.70;1.00
3308;DHT22;1666;48.898;9.182;2023-02-20T15:24:34;13.70;1.00
3308;DHT22;1666;48.898;9.182;2023-02-20T15:27:09;13.50;1.00
3308;DHT22;1666;48.898;9.182;2023-02-20T15:29:40;13.50;1.00
3308;DHT22;1666;48.898;9.182;2023-02-20T15:32:21;13.40;1.00
3308;DHT22;1666;48.898;9.182;2023-02-20T15:34:53;13.40;1.00
3308;DHT22;1666;48.898;9.182;2023-02-20T15:37:26;13.30;1.00
3308;DHT22;1666;48.898;9.182;2023-02-20T15:40:15;13.30;1.00
3308;DHT22;1666;48.898;9.182;2023-02-20T15:42:45;13.20;1.00
3308;DHT22;1666;48.898;9.182;2023-02-20T15:45:16;13.10;1.00
3308;DHT22;1666;48.898;9.182;2023-02-20T15:47:48;13.10;1.00
3308;DHT22;1666;48.898;9.182;2023-02-20T15:50:18;13.10;1.00
3308;DHT22;1666;48.898;9.182;2023-02-20T15:52:48;13.10;1.00
3308;DHT22;1666;48.898;9.182;2023-02-20T15:55:21;13.00;1.00
3308;DHT22;1666;48.898;9.182;2023-02-20T15:57:54;13.10;1.00
3308;DHT22;1666;48.898;9.182;2023-02-20T16:00:27;13.10;1.00
3308;DHT22;1666;48.898;9.182;2023-02-20T16:03:01;13.00;1.00
3308;DHT22;1666;48.898;9.182;2023-02-20T16:05:31;12.90;1.00
3308;DHT22;1666;48.898;9.182;2023-02-20T16:08:00;12.80;1.00
3308;DHT22;1666;48.898;9.182;2023-02-20T16:10:30;12.80;1.00
3308;DHT22;1666;48.898;9.182;2023-02-20T16:13:00;12.70;1.00
3308;DHT22;1666;48.898;9.182;2023-02-20T16:15:30;12.60;1.00
3308;DHT22;1666;48.898;9.182;2023-02-20T16:18:03;12.50;1.00
3308;DHT22;1666;48.898;9.182;2023-02-20T16:20:33;12.40;1.00
3308;DHT22;1666;48.898;9.182;2023-02-20T16:23:02;12.40;1.00
3308;DHT22;1666;48.898;9.182;2023-02-20T16:25:34;12.40;1.00
3308;DHT22;1666;48.898;9.182;2023-02-20T16:28:05;12.30;1.00
3308;DHT22;1666;48.898;9.182;2023-02-20T16:30:37;12.20;1.00
3308;DHT22;1666;48.898;9.182;2023-02-20T16:33:13;12.30;1.00
3308;DHT22;1666;48.898;9.182;2023-02-20T16:35:51;12.20;1.00
3308;DHT22;1666;48.898;9.182;2023-02-20T16:38:21;12.20;1.00
3308;DHT22;1666;48.898;9.182;2023-02-20T16:40:52;12.00;1.00
3308;DHT22;1666;48.898;9.182;2023-02-20T16:43:24;11.90;1.00
3308;DHT22;1666;48.898;9.182;2023-02-20T16:45:54;11.70;1.00
3308;DHT22;1666;48.898;9.182;2023-02-20T16:48:26;11.60;1.00
3308;DHT22;1666;48.898;9.182;2023-02-20T16:50:56;11.50;1.00
3308;DHT22;1666;48.898;9.182;2023-02-20T16:53:26;11.60;1.00
3308;DHT22;1666;48.898;9.182;2023-02-20T16:55:58;11.50;1.00
3308;DHT22;1666;48.898;9.182;2023-02-20T16:58:27;11.50;1.00
3308;DHT22;1666;48.898;9.182;2023-02-20T17:00:58;11.30;1.00
3308;DHT22;1666;48.898;9.182;2023-02-20T17:03:30;11.20;1.00
3308;DHT22;1666;48.898;9.182;2023-02-20T17:06:00;11.10;1.00
3308;DHT22;1666;48.898;9.182;2023-02-20T17:08:30;10.90;1.00
3308;DHT22;1666;48.898;9.182;2023-02-20T17:11:00;10.80;1.00
3308;DHT22;1666;48.898;9.182;2023-02-20T17:13:30;10.80;1.00
3308;DHT22;1666;48.898;9.182;2023-02-20T17:16:00;10.80;1.00
3308;DHT22;1666;48.898;9.182;2023-02-20T17:18:32;10.80;1.00
3308;DHT22;1666;48.898;9.182;2023-02-20T17:21:02;10.60;1.00
3308;DHT22;1666;48.898;9.182;2023-02-20T17:23:32;10.50;1.00
3308;DHT22;1666;48.898;9.182;2023-02-20T17:26:02;10.30;1.00